sensor_id;sensor_type;location;lat;lon;timestamp;pressure;altitude;pressure_sealevel;temperature
8227;BMP180;4154;48.810;9.012;2023-06-10T00:02:09;96778.00;;;17.80
8227;BMP180;4154;48.810;9.012;2023-06-10T00:04:35;96779.00;;;17.80
8227;BMP180;4154;48.810;9.012;2023-06-10T00:07:04;96770.00;;;17.70
8227;BMP180;4154;48.810;9.012;2023-06-10T00:09:34;96779.00;;;17.70
8227;BMP180;4154;48.810;9.012;2023-06-10T00:12:05;96777.00;;;17.60
8227;BMP180;4154;48.810;9.012;2023-06-10T00:14:33;96781.00;;;17.60
8227;BMP180;4154;48.810;9.012;2023-06-10T00:16:59;96783.00;;;17.60
8227;BMP180;4154;48.810;9.012;2023-06-10T00:19:25;96776.00;;;17.60
8227;BMP180;4154;48.810;9.012;2023-06-10T00:21:56;96778.00;;;17.50
8227;BMP180;4154;48.810;9.012;2023-06-10T00:24:22;96780.00;;;17.60
8227;BMP180;4154;48.810;9.012;2023-06-10T00:26:49;96773.00;;;17.60
8227;BMP180;4154;48.810;9.012;2023-06-10T00:29:15;96777.00;;;17.50
8227;BMP180;4154;48.810;9.012;2023-06-10T00:31:42;96778.00;;;17.60
8227;BMP180;4154;48.810;9.012;2023-06-10T00:34:08;96772.00;;;17.60
8227;BMP180;4154;48.810;9.012;2023-06-10T00:36:34;96773.00;;;17.60
8227;BMP180;4154;48.810;9.012;2023-06-10T00:39:01;96772.00;;;17.60
8227;BMP180;4154;48.810;9.012;2023-06-10T00:41:28;96769.00;;;17.50
8227;BMP180;4154;48.810;9.012;2023-06-10T00:43:54;96774.00;;;17.50
8227;BMP180;4154;48.810;9.012;2023-06-10T00:46:21;96772.00;;;17.50
8227;BMP180;4154;48.810;9.012;2023-06-10T00:48:49;96777.00;;;17.50
8227;BMP180;4154;48.810;9.012;2023-06-10T00:51:18;96773.00;;;17.50
8227;BMP180;4154;48.810;9.012;2023-06-10T00:53:44;96775.00;;;17.40
8227;BMP180;4154;48.810;9.012;2023-06-10T00:56:11;96774.00;;;17.40
8227;BMP180;4154;48.810;9.012;2023-06-10T00:58:37;96769.00;;;17.40
8227;BMP180;4154;48.810;9.012;2023-06-10T01:01:03;96772.00;;;17.30
8227;BMP180;4154;48.810;9.012;2023-06-10T01:03:30;96781.00;;;17.30
8227;BMP180;4154;48.810;9.012;2023-06-10T01:09:22;96771.00;;;17.30
8227;BMP180;4154;48.810;9.012;2023-06-10T01:12:24;96777.00;;;17.30
8227;BMP180;4154;48.810;9.012;2023-06-10T01:14:52;96773.00;;;17.20
8227;BMP180;4154;48.810;9.012;2023-06-10T01:17:19;96767.00;;;17.20
8227;BMP180;4154;48.810;9.012;2023-06-10T01:19:54;96764.00;;;17.20
8227;BMP180;4154;48.810;9.012;2023-06-10T01:22:22;96761.00;;;17.20
8227;BMP180;4154;48.810;9.012;2023-06-10T01:24:49;96765.00;;;17.10
8227;BMP180;4154;48.810;9.012;2023-06-10T01:27:20;96760.00;;;17.10
8227;BMP180;4154;48.810;9.012;2023-06-10T01:29:58;96759.00;;;17.10
8227;BMP180;4154;48.810;9.012;2023-06-10T01:32:35;96758.00;;;17.10
8227;BMP180;4154;48.810;9.012;2023-06-10T01:35:05;96757.00;;;17.10
8227;BMP180;4154;48.810;9.012;2023-06-10T01:37:32;96761.00;;;17.10
8227;BMP180;4154;48.810;9.012;2023-06-10T01:40:00;96765.00;;;17.10
8227;BMP180;4154;48.810;9.012;2023-06-10T01:42:29;96764.00;;;17.10
8227;BMP180;4154;48.810;9.012;2023-06-10T01:44:55;96758.00;;;17.10
8227;BMP180;4154;48.810;9.012;2023-06-10T01:47:21;96771.00;;;17.10
8227;BMP180;4154;48.810;9.012;2023-06-10T01:49:47;96766.00;;;17.10
8227;BMP180;4154;48.810;9.012;2023-06-10T01:52:13;96770.00;;;17.10
8227;BMP180;4154;48.810;9.012;2023-06-10T01:54:39;96772.00;;;17.10
8227;BMP180;4154;48.810;9.012;2023-06-10T01:57:05;96771.00;;;17.10
8227;BMP180;4154;48.810;9.012;2023-06-10T01:59:31;96768.00;;;17.10
8227;BMP180;4154;48.810;9.012;2023-06-10T02:01:57;96765.00;;;17.10
8227;BMP180;4154;48.810;9.012;2023-06-10T02:04:23;96773.00;;;17.00
8227;BMP180;4154;48.810;9.012;2023-06-10T02:06:49;96768.00;;;16.90
8227;BMP180;4154;48.810;9.012;2023-06-10T02:09:16;96776.00;;;16.90
8227;BMP180;4154;48.810;9.012;2023-06-10T02:11:44;96773.00;;;16.90
8227;BMP180;4154;48.810;9.012;2023-06-10T02:14:10;96781.00;;;16.80
8227;BMP180;4154;48.810;9.012;2023-06-10T02:16:36;96779.00;;;16.80
8227;BMP180;4154;48.810;9.012;2023-06-10T02:19:02;96780.00;;;16.80
8227;BMP180;4154;48.810;9.012;2023-06-10T02:21:32;96791.00;;;16.80
8227;BMP180;4154;48.810;9.012;2023-06-10T02:24:00;96788.00;;;16.70
8227;BMP180;4154;48.810;9.012;2023-06-10T02:26:26;96792.00;;;16.70
8227;BMP180;4154;48.810;9.012;2023-06-10T02:28:52;96777.00;;;16.60
8227;BMP180;4154;48.810;9.012;2023-06-10T02:31:18;96787.00;;;16.50
8227;BMP180;4154;48.810;9.012;2023-06-10T02:33:45;96791.00;;;16.50
8227;BMP180;4154;48.810;9.012;2023-06-10T02:36:12;96792.00;;;16.40
8227;BMP180;4154;48.810;9.012;2023-06-10T02:38:41;96792.00;;;16.30
8227;BMP180;4154;48.810;9.012;2023-06-10T02:41:08;96796.00;;;16.20
8227;BMP180;4154;48.810;9.012;2023-06-10T02:43:33;96800.00;;;16.20
8227;BMP180;4154;48.810;9.012;2023-06-10T02:45:59;96805.00;;;16.10
8227;BMP180;4154;48.810;9.012;2023-06-10T02:48:26;96801.00;;;16.10
8227;BMP180;4154;48.810;9.012;2023-06-10T02:50:52;96790.00;;;16.00
8227;BMP180;4154;48.810;9.012;2023-06-10T02:53:18;96800.00;;;16.00
8227;BMP180;4154;48.810;9.012;2023-06-10T02:55:44;96790.00;;;15.90
8227;BMP180;4154;48.810;9.012;2023-06-10T02:58:10;96801.00;;;15.90
8227;BMP180;4154;48.810;9.012;2023-06-10T03:00:36;96794.00;;;15.90
8227;BMP180;4154;48.810;9.012;2023-06-10T03:03:03;96799.00;;;15.90
8227;BMP180;4154;48.810;9.012;2023-06-10T03:05:30;96801.00;;;15.80
8227;BMP180;4154;48.810;9.012;2023-06-10T03:07:56;96796.00;;;15.80
8227;BMP180;4154;48.810;9.012;2023-06-10T03:10:22;96795.00;;;15.70
8227;BMP180;4154;48.810;9.012;2023-06-10T03:12:48;96798.00;;;15.70
8227;BMP180;4154;48.810;9.012;2023-06-10T03:15:14;96798.00;;;15.70
8227;BMP180;4154;48.810;9.012;2023-06-10T03:17:41;96810.00;;;15.60
8227;BMP180;4154;48.810;9.012;2023-06-10T03:20:08;96815.00;;;15.60
8227;BMP180;4154;48.810;9.012;2023-06-10T03:22:36;96804.00;;;15.60
8227;BMP180;4154;48.810;9.012;2023-06-10T03:25:04;96810.00;;;15.50
8227;BMP180;4154;48.810;9.012;2023-06-10T03:27:31;96822.00;;;15.50
8227;BMP180;4154;48.810;9.012;2023-06-10T03:29:58;96818.00;;;15.40
8227;BMP180;4154;48.810;9.012;2023-06-10T03:32:24;96819.00;;;15.40
8227;BMP180;4154;48.810;9.012;2023-06-10T03:34:50;96826.00;;;15.40
8227;BMP180;4154;48.810;9.012;2023-06-10T03:37:17;96821.00;;;15.30
8227;BMP180;4154;48.810;9.012;2023-06-10T03:39:43;96823.00;;;15.30
8227;BMP180;4154;48.810;9.012;2023-06-10T03:42:09;96832.00;;;15.30
8227;BMP180;4154;48.810;9.012;2023-06-10T03:44:35;96838.00;;;15.30
8227;BMP180;4154;48.810;9.012;2023-06-10T03:47:02;96829.00;;;15.20
8227;BMP180;4154;48.810;9.012;2023-06-10T03:49:28;96828.00;;;15.30
8227;BMP180;4154;48.810;9.012;2023-06-10T03:51:55;96828.00;;;15.20
8227;BMP180;4154;48.810;9.012;2023-06-10T03:54:21;96829.00;;;15.20
8227;BMP180;4154;48.810;9.012;2023-06-10T03:56:47;96836.00;;;15.20
8227;BMP180;4154;48.810;9.012;2023-06-10T03:59:14;96829.00;;;15.20
8227;BMP180;4154;48.810;9.012;2023-06-10T04:01:39;96834.00;;;15.20
8227;BMP180;4154;48.810;9.012;2023-06-10T04:04:07;96838.00;;;15.20
8227;BMP180;4154;48.810;9.012;2023-06-10T04:06:33;96833.00;;;15.10
8227;BMP180;4154;48.810;9.012;2023-06-10T04:08:59;96832.00;;;15.10
8227;BMP180;4154;48.810;9.012;2023-06-10T04:11:25;96840.00;;;15.10
8227;BMP180;4154;48.810;9.012;2023-06-10T04:13:51;96835.00;;;15.10
8227;BMP180;4154;48.810;9.012;2023-06-10T04:16:17;96838.00;;;15.10
8227;BMP180;4154;48.810;9.012;2023-06-10T04:18:43;96837.00;;;15.10
8227;BMP180;4154;48.810;9.012;2023-06-10T04:21:09;96835.00;;;15.10
8227;BMP180;4154;48.810;9.012;2023-06-10T04:23:35;96843.00;;;15.10
8227;BMP180;4154;48.810;9.012;2023-06-10T04:26:03;96836.00;;;15.10
8227;BMP180;4154;48.810;9.012;2023-06-10T04:28:30;96840.00;;;15.10
8227;BMP180;4154;48.810;9.012;2023-06-10T04:30:56;96841.00;;;15.10
8227;BMP180;4154;48.810;9.012;2023-06-10T04:33:23;96845.00;;;15.10
8227;BMP180;4154;48.810;9.012;2023-06-10T04:35:50;96847.00;;;15.20
8227;BMP180;4154;48.810;9.012;2023-06-10T04:38:16;96839.00;;;15.10
8227;BMP180;4154;48.810;9.012;2023-06-10T04:40:42;96846.00;;;15.20
8227;BMP180;4154;48.810;9.012;2023-06-10T04:43:08;96843.00;;;15.20
8227;BMP180;4154;48.810;9.012;2023-06-10T04:45:34;96843.00;;;15.20
8227;BMP180;4154;48.810;9.012;2023-06-10T04:48:00;96830.00;;;15.20
8227;BMP180;4154;48.810;9.012;2023-06-10T04:50:27;96848.00;;;15.30
8227;BMP180;4154;48.810;9.012;2023-06-10T04:52:52;96840.00;;;15.30
8227;BMP180;4154;48.810;9.012;2023-06-10T04:55:18;96851.00;;;15.30
8227;BMP180;4154;48.810;9.012;2023-06-10T04:57:44;96846.00;;;15.30
8227;BMP180;4154;48.810;9.012;2023-06-10T05:00:11;96851.00;;;15.30
8227;BMP180;4154;48.810;9.012;2023-06-10T05:02:37;96850.00;;;15.40
8227;BMP180;4154;48.810;9.012;2023-06-10T05:05:02;96850.00;;;15.40
8227;BMP180;4154;48.810;9.012;2023-06-10T05:07:28;96854.00;;;15.40
8227;BMP180;4154;48.810;9.012;2023-06-10T05:09:55;96850.00;;;15.50
8227;BMP180;4154;48.810;9.012;2023-06-10T05:12:21;96851.00;;;15.50
8227;BMP180;4154;48.810;9.012;2023-06-10T05:14:47;96855.00;;;15.50
8227;BMP180;4154;48.810;9.012;2023-06-10T05:17:13;96859.00;;;15.60
8227;BMP180;4154;48.810;9.012;2023-06-10T05:19:39;96854.00;;;15.60
8227;BMP180;4154;48.810;9.012;2023-06-10T05:22:04;96862.00;;;15.70
8227;BMP180;4154;48.810;9.012;2023-06-10T05:24:30;96859.00;;;15.70
8227;BMP180;4154;48.810;9.012;2023-06-10T05:26:56;96864.00;;;15.80
8227;BMP180;4154;48.810;9.012;2023-06-10T05:29:22;96863.00;;;15.90
8227;BMP180;4154;48.810;9.012;2023-06-10T05:31:48;96869.00;;;15.90
8227;BMP180;4154;48.810;9.012;2023-06-10T05:34:16;96866.00;;;15.90
8227;BMP180;4154;48.810;9.012;2023-06-10T05:36:42;96865.00;;;16.00
8227;BMP180;4154;48.810;9.012;2023-06-10T05:39:09;96867.00;;;16.10
8227;BMP180;4154;48.810;9.012;2023-06-10T05:41:35;96871.00;;;16.10
8227;BMP180;4154;48.810;9.012;2023-06-10T05:44:01;96874.00;;;16.20
8227;BMP180;4154;48.810;9.012;2023-06-10T05:46:27;96871.00;;;16.20
8227;BMP180;4154;48.810;9.012;2023-06-10T05:48:53;96868.00;;;16.30
8227;BMP180;4154;48.810;9.012;2023-06-10T05:51:19;96867.00;;;16.50
8227;BMP180;4154;48.810;9.012;2023-06-10T05:53:45;96876.00;;;16.50
8227;BMP180;4154;48.810;9.012;2023-06-10T05:56:13;96870.00;;;16.60
8227;BMP180;4154;48.810;9.012;2023-06-10T05:58:39;96879.00;;;16.80
8227;BMP180;4154;48.810;9.012;2023-06-10T06:01:05;96884.00;;;16.80
8227;BMP180;4154;48.810;9.012;2023-06-10T06:03:31;96878.00;;;16.90
8227;BMP180;4154;48.810;9.012;2023-06-10T06:05:57;96880.00;;;17.00
8227;BMP180;4154;48.810;9.012;2023-06-10T06:08:23;96880.00;;;17.10
8227;BMP180;4154;48.810;9.012;2023-06-10T06:10:49;96876.00;;;17.20
8227;BMP180;4154;48.810;9.012;2023-06-10T06:13:15;96882.00;;;17.20
8227;BMP180;4154;48.810;9.012;2023-06-10T06:15:41;96868.00;;;17.40
8227;BMP180;4154;48.810;9.012;2023-06-10T06:18:07;96874.00;;;17.40
8227;BMP180;4154;48.810;9.012;2023-06-10T06:20:33;96876.00;;;17.50
8227;BMP180;4154;48.810;9.012;2023-06-10T06:22:59;96881.00;;;17.50
8227;BMP180;4154;48.810;9.012;2023-06-10T06:25:25;96890.00;;;17.50
8227;BMP180;4154;48.810;9.012;2023-06-10T06:27:51;96881.00;;;17.60
8227;BMP180;4154;48.810;9.012;2023-06-10T06:30:18;96883.00;;;17.60
8227;BMP180;4154;48.810;9.012;2023-06-10T06:32:44;96883.00;;;17.70
8227;BMP180;4154;48.810;9.012;2023-06-10T06:35:10;96883.00;;;17.80
8227;BMP180;4154;48.810;9.012;2023-06-10T06:37:36;96883.00;;;17.80
8227;BMP180;4154;48.810;9.012;2023-06-10T06:40:02;96886.00;;;17.90
8227;BMP180;4154;48.810;9.012;2023-06-10T06:42:29;96887.00;;;18.10
8227;BMP180;4154;48.810;9.012;2023-06-10T06:44:55;96887.00;;;18.10
8227;BMP180;4154;48.810;9.012;2023-06-10T06:47:21;96888.00;;;18.20
8227;BMP180;4154;48.810;9.012;2023-06-10T06:49:48;96893.00;;;18.20
8227;BMP180;4154;48.810;9.012;2023-06-10T06:52:15;96892.00;;;18.30
8227;BMP180;4154;48.810;9.012;2023-06-10T06:54:41;96898.00;;;18.40
8227;BMP180;4154;48.810;9.012;2023-06-10T06:57:07;96899.00;;;18.50
8227;BMP180;4154;48.810;9.012;2023-06-10T06:59:33;96889.00;;;18.50
8227;BMP180;4154;48.810;9.012;2023-06-10T07:01:59;96892.00;;;18.60
8227;BMP180;4154;48.810;9.012;2023-06-10T07:04:26;96899.00;;;18.60
8227;BMP180;4154;48.810;9.012;2023-06-10T07:06:52;96893.00;;;18.60
8227;BMP180;4154;48.810;9.012;2023-06-10T07:09:18;96892.00;;;18.80
8227;BMP180;4154;48.810;9.012;2023-06-10T07:11:43;96891.00;;;18.80
8227;BMP180;4154;48.810;9.012;2023-06-10T07:14:10;96901.00;;;18.80
8227;BMP180;4154;48.810;9.012;2023-06-10T07:16:36;96890.00;;;18.80
8227;BMP180;4154;48.810;9.012;2023-06-10T07:19:02;96897.00;;;18.90
8227;BMP180;4154;48.810;9.012;2023-06-10T07:21:29;96895.00;;;19.10
8227;BMP180;4154;48.810;9.012;2023-06-10T07:23:55;96893.00;;;19.20
8227;BMP180;4154;48.810;9.012;2023-06-10T07:26:24;96900.00;;;19.30
8227;BMP180;4154;48.810;9.012;2023-06-10T07:28:51;96892.00;;;19.40
8227;BMP180;4154;48.810;9.012;2023-06-10T07:31:18;96891.00;;;19.50
8227;BMP180;4154;48.810;9.012;2023-06-10T07:33:44;96894.00;;;19.60
8227;BMP180;4154;48.810;9.012;2023-06-10T07:36:10;96889.00;;;19.70
8227;BMP180;4154;48.810;9.012;2023-06-10T07:38:36;96895.00;;;19.90
8227;BMP180;4154;48.810;9.012;2023-06-10T07:41:02;96894.00;;;19.90
8227;BMP180;4154;48.810;9.012;2023-06-10T07:43:29;96898.00;;;20.00
8227;BMP180;4154;48.810;9.012;2023-06-10T07:45:55;96889.00;;;20.10
8227;BMP180;4154;48.810;9.012;2023-06-10T07:48:21;96893.00;;;20.20
8227;BMP180;4154;48.810;9.012;2023-06-10T07:50:47;96886.00;;;20.20
8227;BMP180;4154;48.810;9.012;2023-06-10T07:53:13;96888.00;;;20.30
8227;BMP180;4154;48.810;9.012;2023-06-10T07:55:39;96891.00;;;20.40
8227;BMP180;4154;48.810;9.012;2023-06-10T07:58:05;96883.00;;;20.60
8227;BMP180;4154;48.810;9.012;2023-06-10T08:00:31;96890.00;;;20.60
8227;BMP180;4154;48.810;9.012;2023-06-10T08:02:57;96893.00;;;20.70
8227;BMP180;4154;48.810;9.012;2023-06-10T08:05:23;96892.00;;;20.70
8227;BMP180;4154;48.810;9.012;2023-06-10T08:07:49;96888.00;;;20.80
8227;BMP180;4154;48.810;9.012;2023-06-10T08:10:15;96885.00;;;20.90
8227;BMP180;4154;48.810;9.012;2023-06-10T08:12:41;96893.00;;;20.90
8227;BMP180;4154;48.810;9.012;2023-06-10T08:15:25;96892.00;;;21.00
8227;BMP180;4154;48.810;9.012;2023-06-10T08:17:57;96893.00;;;21.10
8227;BMP180;4154;48.810;9.012;2023-06-10T08:20:23;96888.00;;;21.10
8227;BMP180;4154;48.810;9.012;2023-06-10T08:22:49;96903.00;;;21.20
8227;BMP180;4154;48.810;9.012;2023-06-10T08:25:16;96893.00;;;21.30
8227;BMP180;4154;48.810;9.012;2023-06-10T08:27:42;96890.00;;;21.30
8227;BMP180;4154;48.810;9.012;2023-06-10T08:30:08;96892.00;;;21.40
8227;BMP180;4154;48.810;9.012;2023-06-10T08:32:36;96888.00;;;21.50
8227;BMP180;4154;48.810;9.012;2023-06-10T08:35:05;96900.00;;;21.60
8227;BMP180;4154;48.810;9.012;2023-06-10T08:37:31;96902.00;;;21.60
8227;BMP180;4154;48.810;9.012;2023-06-10T08:39:57;96885.00;;;21.80
8227;BMP180;4154;48.810;9.012;2023-06-10T08:42:32;96893.00;;;21.80
8227;BMP180;4154;48.810;9.012;2023-06-10T08:45:02;96901.00;;;22.00
8227;BMP180;4154;48.810;9.012;2023-06-10T08:47:34;96895.00;;;21.90
8227;BMP180;4154;48.810;9.012;2023-06-10T08:50:05;96900.00;;;21.90
8227;BMP180;4154;48.810;9.012;2023-06-10T08:52:58;96902.00;;;22.00
8227;BMP180;4154;48.810;9.012;2023-06-10T08:55:36;96890.00;;;22.20
8227;BMP180;4154;48.810;9.012;2023-06-10T08:58:08;96893.00;;;22.20
8227;BMP180;4154;48.810;9.012;2023-06-10T09:00:34;96892.00;;;22.30
8227;BMP180;4154;48.810;9.012;2023-06-10T09:03:09;96895.00;;;22.40
8227;BMP180;4154;48.810;9.012;2023-06-10T09:08:39;96884.00;;;22.40
8227;BMP180;4154;48.810;9.012;2023-06-10T09:11:13;96889.00;;;22.40
8227;BMP180;4154;48.810;9.012;2023-06-10T09:13:39;96893.00;;;22.60
8227;BMP180;4154;48.810;9.012;2023-06-10T09:16:08;96884.00;;;22.70
8227;BMP180;4154;48.810;9.012;2023-06-10T09:18:34;96889.00;;;22.80
8227;BMP180;4154;48.810;9.012;2023-06-10T09:21:00;96889.00;;;22.70
8227;BMP180;4154;48.810;9.012;2023-06-10T09:23:26;96888.00;;;22.70
8227;BMP180;4154;48.810;9.012;2023-06-10T09:25:57;96890.00;;;22.80
8227;BMP180;4154;48.810;9.012;2023-06-10T09:28:24;96897.00;;;22.90
8227;BMP180;4154;48.810;9.012;2023-06-10T09:31:05;96886.00;;;22.90
8227;BMP180;4154;48.810;9.012;2023-06-10T09:33:34;96883.00;;;22.90
8227;BMP180;4154;48.810;9.012;2023-06-10T09:36:02;96878.00;;;22.90
8227;BMP180;4154;48.810;9.012;2023-06-10T09:38:35;96879.00;;;23.10
8227;BMP180;4154;48.810;9.012;2023-06-10T09:41:03;96877.00;;;23.10
8227;BMP180;4154;48.810;9.012;2023-06-10T09:43:44;96877.00;;;23.10
8227;BMP180;4154;48.810;9.012;2023-06-10T09:46:18;96887.00;;;23.20
8227;BMP180;4154;48.810;9.012;2023-06-10T09:48:46;96883.00;;;23.30
8227;BMP180;4154;48.810;9.012;2023-06-10T09:51:14;96880.00;;;23.40
8227;BMP180;4154;48.810;9.012;2023-06-10T09:53:40;96880.00;;;23.40
8227;BMP180;4154;48.810;9.012;2023-06-10T09:56:06;96880.00;;;23.30
8227;BMP180;4154;48.810;9.012;2023-06-10T09:58:39;96882.00;;;23.40
8227;BMP180;4154;48.810;9.012;2023-06-10T10:01:08;96874.00;;;23.50
8227;BMP180;4154;48.810;9.012;2023-06-10T10:03:49;96878.00;;;23.60
8227;BMP180;4154;48.810;9.012;2023-06-10T10:06:17;96865.00;;;23.50
8227;BMP180;4154;48.810;9.012;2023-06-10T10:08:45;96869.00;;;23.60
8227;BMP180;4154;48.810;9.012;2023-06-10T10:11:11;96871.00;;;23.70
8227;BMP180;4154;48.810;9.012;2023-06-10T10:13:38;96867.00;;;23.70
8227;BMP180;4154;48.810;9.012;2023-06-10T10:16:15;96862.00;;;23.70
8227;BMP180;4154;48.810;9.012;2023-06-10T10:18:46;96863.00;;;23.70
8227;BMP180;4154;48.810;9.012;2023-06-10T10:21:15;96862.00;;;23.70
8227;BMP180;4154;48.810;9.012;2023-06-10T10:24:11;96858.00;;;23.80
8227;BMP180;4154;48.810;9.012;2023-06-10T10:26:38;96855.00;;;23.80
8227;BMP180;4154;48.810;9.012;2023-06-10T10:29:16;96857.00;;;23.80
8227;BMP180;4154;48.810;9.012;2023-06-10T10:31:43;96866.00;;;23.90
8227;BMP180;4154;48.810;9.012;2023-06-10T10:34:16;96866.00;;;23.90
8227;BMP180;4154;48.810;9.012;2023-06-10T10:36:46;96863.00;;;23.80
8227;BMP180;4154;48.810;9.012;2023-06-10T10:39:12;96856.00;;;23.80
8227;BMP180;4154;48.810;9.012;2023-06-10T10:41:39;96864.00;;;23.90
8227;BMP180;4154;48.810;9.012;2023-06-10T10:44:06;96858.00;;;23.90
8227;BMP180;4154;48.810;9.012;2023-06-10T10:46:43;96856.00;;;24.00
8227;BMP180;4154;48.810;9.012;2023-06-10T10:49:13;96859.00;;;24.10
8227;BMP180;4154;48.810;9.012;2023-06-10T10:51:58;96850.00;;;24.10
8227;BMP180;4154;48.810;9.012;2023-06-10T10:54:33;96861.00;;;24.30
8227;BMP180;4154;48.810;9.012;2023-06-10T10:57:20;96855.00;;;24.40
8227;BMP180;4154;48.810;9.012;2023-06-10T11:02:45;96853.00;;;24.60
8227;BMP180;4154;48.810;9.012;2023-06-10T11:05:15;96852.00;;;24.70
8227;BMP180;4154;48.810;9.012;2023-06-10T11:07:41;96855.00;;;24.70
8227;BMP180;4154;48.810;9.012;2023-06-10T11:10:17;96854.00;;;24.90
8227;BMP180;4154;48.810;9.012;2023-06-10T11:15:12;96843.00;;;24.80
8227;BMP180;4154;48.810;9.012;2023-06-10T11:18:14;96851.00;;;24.60
8227;BMP180;4154;48.810;9.012;2023-06-10T11:31:29;96847.00;;;25.00
8227;BMP180;4154;48.810;9.012;2023-06-10T11:34:03;96841.00;;;25.20
8227;BMP180;4154;48.810;9.012;2023-06-10T11:36:31;96841.00;;;25.40
8227;BMP180;4154;48.810;9.012;2023-06-10T11:39:03;96840.00;;;25.40
8227;BMP180;4154;48.810;9.012;2023-06-10T11:41:33;96839.00;;;25.60
8227;BMP180;4154;48.810;9.012;2023-06-10T11:46:29;96837.00;;;25.60
8227;BMP180;4154;48.810;9.012;2023-06-10T11:48:58;96828.00;;;25.60
8227;BMP180;4154;48.810;9.012;2023-06-10T11:51:33;96821.00;;;25.70
8227;BMP180;4154;48.810;9.012;2023-06-10T11:53:59;96826.00;;;25.70
8227;BMP180;4154;48.810;9.012;2023-06-10T11:56:27;96833.00;;;25.70
8227;BMP180;4154;48.810;9.012;2023-06-10T11:58:54;96818.00;;;25.50
8227;BMP180;4154;48.810;9.012;2023-06-10T12:01:23;96833.00;;;25.60
8227;BMP180;4154;48.810;9.012;2023-06-10T12:04:04;96835.00;;;25.70
8227;BMP180;4154;48.810;9.012;2023-06-10T12:06:45;96825.00;;;25.70
8227;BMP180;4154;48.810;9.012;2023-06-10T12:09:29;96828.00;;;25.70
8227;BMP180;4154;48.810;9.012;2023-06-10T12:12:06;96830.00;;;25.60
8227;BMP180;4154;48.810;9.012;2023-06-10T12:14:59;96836.00;;;25.50
8227;BMP180;4154;48.810;9.012;2023-06-10T12:19:58;96826.00;;;25.60
8227;BMP180;4154;48.810;9.012;2023-06-10T12:22:24;96827.00;;;25.40
8227;BMP180;4154;48.810;9.012;2023-06-10T12:25:02;96826.00;;;25.40
8227;BMP180;4154;48.810;9.012;2023-06-10T12:27:31;96821.00;;;25.40
8227;BMP180;4154;48.810;9.012;2023-06-10T12:29:59;96817.00;;;25.40
8227;BMP180;4154;48.810;9.012;2023-06-10T12:32:41;96812.00;;;25.40
8227;BMP180;4154;48.810;9.012;2023-06-10T12:35:08;96824.00;;;25.40
8227;BMP180;4154;48.810;9.012;2023-06-10T12:37:35;96813.00;;;25.40
8227;BMP180;4154;48.810;9.012;2023-06-10T12:40:03;96816.00;;;25.30
8227;BMP180;4154;48.810;9.012;2023-06-10T12:42:29;96818.00;;;25.40
8227;BMP180;4154;48.810;9.012;2023-06-10T12:44:57;96817.00;;;25.50
8227;BMP180;4154;48.810;9.012;2023-06-10T12:47:33;96814.00;;;25.50
8227;BMP180;4154;48.810;9.012;2023-06-10T12:50:05;96818.00;;;25.60
8227;BMP180;4154;48.810;9.012;2023-06-10T12:52:32;96823.00;;;25.60
8227;BMP180;4154;48.810;9.012;2023-06-10T12:54:58;96815.00;;;25.70
8227;BMP180;4154;48.810;9.012;2023-06-10T12:57:26;96817.00;;;25.90
8227;BMP180;4154;48.810;9.012;2023-06-10T12:59:52;96820.00;;;26.10
8227;BMP180;4154;48.810;9.012;2023-06-10T13:02:21;96815.00;;;26.10
8227;BMP180;4154;48.810;9.012;2023-06-10T13:04:50;96809.00;;;26.00
8227;BMP180;4154;48.810;9.012;2023-06-10T13:07:16;96810.00;;;25.90
8227;BMP180;4154;48.810;9.012;2023-06-10T13:09:43;96806.00;;;25.80
8227;BMP180;4154;48.810;9.012;2023-06-10T13:12:10;96813.00;;;25.70
8227;BMP180;4154;48.810;9.012;2023-06-10T13:14:37;96817.00;;;25.60
8227;BMP180;4154;48.810;9.012;2023-06-10T13:17:05;96813.00;;;25.50
8227;BMP180;4154;48.810;9.012;2023-06-10T13:19:33;96807.00;;;25.40
8227;BMP180;4154;48.810;9.012;2023-06-10T13:21:59;96808.00;;;25.40
8227;BMP180;4154;48.810;9.012;2023-06-10T13:24:25;96800.00;;;25.30
8227;BMP180;4154;48.810;9.012;2023-06-10T13:26:52;96804.00;;;25.10
8227;BMP180;4154;48.810;9.012;2023-06-10T13:29:18;96799.00;;;25.10
8227;BMP180;4154;48.810;9.012;2023-06-10T13:31:44;96795.00;;;25.20
8227;BMP180;4154;48.810;9.012;2023-06-10T13:34:10;96792.00;;;25.40
8227;BMP180;4154;48.810;9.012;2023-06-10T13:36:36;96790.00;;;25.60
8227;BMP180;4154;48.810;9.012;2023-06-10T13:39:02;96784.00;;;25.90
8227;BMP180;4154;48.810;9.012;2023-06-10T13:41:29;96794.00;;;26.00
8227;BMP180;4154;48.810;9.012;2023-06-10T13:43:55;96793.00;;;26.20
8227;BMP180;4154;48.810;9.012;2023-06-10T13:46:21;96798.00;;;26.30
8227;BMP180;4154;48.810;9.012;2023-06-10T13:48:48;96797.00;;;26.30
8227;BMP180;4154;48.810;9.012;2023-06-10T13:51:14;96797.00;;;26.10
8227;BMP180;4154;48.810;9.012;2023-06-10T13:53:40;96797.00;;;26.00
8227;BMP180;4154;48.810;9.012;2023-06-10T13:56:06;96792.00;;;25.90
8227;BMP180;4154;48.810;9.012;2023-06-10T13:58:33;96789.00;;;25.80
8227;BMP180;4154;48.810;9.012;2023-06-10T14:01:04;96780.00;;;25.70
8227;BMP180;4154;48.810;9.012;2023-06-10T14:03:31;96787.00;;;25.60
8227;BMP180;4154;48.810;9.012;2023-06-10T14:05:56;96781.00;;;25.50
8227;BMP180;4154;48.810;9.012;2023-06-10T14:08:23;96776.00;;;25.50
8227;BMP180;4154;48.810;9.012;2023-06-10T14:10:49;96775.00;;;25.50
8227;BMP180;4154;48.810;9.012;2023-06-10T14:13:17;96769.00;;;25.60
8227;BMP180;4154;48.810;9.012;2023-06-10T14:15:43;96777.00;;;25.80
8227;BMP180;4154;48.810;9.012;2023-06-10T14:18:09;96771.00;;;26.00
8227;BMP180;4154;48.810;9.012;2023-06-10T14:20:35;96772.00;;;26.10
8227;BMP180;4154;48.810;9.012;2023-06-10T14:23:02;96774.00;;;26.20
8227;BMP180;4154;48.810;9.012;2023-06-10T14:25:28;96769.00;;;26.30
8227;BMP180;4154;48.810;9.012;2023-06-10T14:27:53;96770.00;;;26.40
8227;BMP180;4154;48.810;9.012;2023-06-10T14:30:20;96762.00;;;26.40
8227;BMP180;4154;48.810;9.012;2023-06-10T14:32:46;96755.00;;;26.40
8227;BMP180;4154;48.810;9.012;2023-06-10T14:35:11;96761.00;;;26.50
8227;BMP180;4154;48.810;9.012;2023-06-10T14:37:37;96758.00;;;26.50
8227;BMP180;4154;48.810;9.012;2023-06-10T14:40:05;96760.00;;;26.70
8227;BMP180;4154;48.810;9.012;2023-06-10T14:42:31;96770.00;;;26.70
8227;BMP180;4154;48.810;9.012;2023-06-10T14:44:58;96762.00;;;26.80
8227;BMP180;4154;48.810;9.012;2023-06-10T14:47:24;96755.00;;;26.90
8227;BMP180;4154;48.810;9.012;2023-06-10T14:49:51;96760.00;;;26.90
8227;BMP180;4154;48.810;9.012;2023-06-10T14:52:17;96753.00;;;27.00
8227;BMP180;4154;48.810;9.012;2023-06-10T14:54:42;96753.00;;;27.10
8227;BMP180;4154;48.810;9.012;2023-06-10T14:57:08;96746.00;;;27.10
8227;BMP180;4154;48.810;9.012;2023-06-10T14:59:34;96750.00;;;27.20
8227;BMP180;4154;48.810;9.012;2023-06-10T15:02:00;96749.00;;;27.20
8227;BMP180;4154;48.810;9.012;2023-06-10T15:04:29;96744.00;;;27.10
8227;BMP180;4154;48.810;9.012;2023-06-10T15:06:55;96743.00;;;27.10